sensor_id;sensor_type;location;lat;lon;timestamp;pressure;altitude;pressure_sealevel;temperature;humidity
30347;BME280;19047;44.782;20.468;2022-10-23T00:03:21;101544.16;;;16.42;75.41
30347;BME280;19047;44.782;20.468;2022-10-23T00:06:38;101555.56;;;16.35;75.43
30347;BME280;19047;44.782;20.468;2022-10-23T00:10:09;101581.16;;;16.28;75.55
30347;BME280;19047;44.782;20.468;2022-10-23T00:13:26;101575.63;;;16.21;75.67
30347;BME280;19047;44.782;20.468;2022-10-23T00:16:56;101554.66;;;15.99;75.46
30347;BME280;19047;44.782;20.468;2022-10-23T00:20:13;101569.00;;;16.08;75.87
30347;BME280;19047;44.782;20.468;2022-10-23T00:23:43;101566.28;;;16.01;76.03
30347;BME280;19047;44.782;20.468;2022-10-23T00:27:01;101574.09;;;15.93;76.24
30347;BME280;19047;44.782;20.468;2022-10-23T00:30:32;101574.22;;;15.86;76.31
30347;BME280;19047;44.782;20.468;2022-10-23T00:33:49;101575.13;;;15.80;76.36
30347;BME280;19047;44.782;20.468;2022-10-23T00:37:20;101581.31;;;15.71;76.56
30347;BME280;19047;44.782;20.468;2022-10-23T00:40:37;101570.53;;;15.66;76.54
30347;BME280;19047;44.782;20.468;2022-10-23T00:44:09;101569.84;;;15.58;76.70
30347;BME280;19047;44.782;20.468;2022-10-23T00:47:28;101575.94;;;15.53;76.83
30347;BME280;19047;44.782;20.468;2022-10-23T00:50:59;101575.63;;;15.48;76.78
30347;BME280;19047;44.782;20.468;2022-10-23T00:54:17;101571.69;;;15.42;76.96
30347;BME280;19047;44.782;20.468;2022-10-23T00:57:50;101568.19;;;15.34;77.09
30347;BME280;19047;44.782;20.468;2022-10-23T01:01:17;101572.28;;;15.29;77.24
30347;BME280;19047;44.782;20.468;2022-10-23T01:04:48;101563.50;;;15.24;77.27
30347;BME280;19047;44.782;20.468;2022-10-23T01:08:16;101543.28;;;15.02;77.44
30347;BME280;19047;44.782;20.468;2022-10-23T01:12:07;101569.28;;;15.13;77.44
30347;BME280;19047;44.782;20.468;2022-10-23T01:19:35;101559.38;;;15.02;77.66
30347;BME280;19047;44.782;20.468;2022-10-23T01:30:11;101568.44;;;14.86;77.92
30347;BME280;19047;44.782;20.468;2022-10-23T01:33:43;101571.28;;;14.82;77.94
30347;BME280;19047;44.782;20.468;2022-10-23T01:37:09;101563.31;;;14.77;78.19
30347;BME280;19047;44.782;20.468;2022-10-23T01:41:02;101579.47;;;14.73;78.18
30347;BME280;19047;44.782;20.468;2022-10-23T01:45:03;101571.50;;;14.68;78.17
30347;BME280;19047;44.782;20.468;2022-10-23T09:57:44;101730.28;;;17.66;80.02
30347;BME280;19047;44.782;20.468;2022-10-23T10:01:49;101725.03;;;17.84;79.29
30347;BME280;19047;44.782;20.468;2022-10-23T10:05:34;101723.47;;;18.00;78.41
30347;BME280;19047;44.782;20.468;2022-10-23T10:09:15;101715.16;;;18.09;78.12
30347;BME280;19047;44.782;20.468;2022-10-23T10:12:47;101709.94;;;18.23;77.79
30347;BME280;19047;44.782;20.468;2022-10-23T10:20:44;101700.34;;;18.50;77.18
30347;BME280;19047;44.782;20.468;2022-10-23T10:35:28;101692.66;;;18.95;75.64
30347;BME280;19047;44.782;20.468;2022-10-23T10:43:06;101676.53;;;19.21;75.22
30347;BME280;19047;44.782;20.468;2022-10-23T10:46:50;101668.50;;;19.32;74.55
30347;BME280;19047;44.782;20.468;2022-10-23T10:57:55;101665.16;;;19.63;73.76
30347;BME280;19047;44.782;20.468;2022-10-23T11:09:05;101661.19;;;19.86;72.44
30347;BME280;19047;44.782;20.468;2022-10-23T11:12:28;101645.28;;;19.88;72.58
30347;BME280;19047;44.782;20.468;2022-10-23T11:16:07;101632.69;;;19.89;72.11
30347;BME280;19047;44.782;20.468;2022-10-23T11:27:25;101625.22;;;20.17;71.56
30347;BME280;19047;44.782;20.468;2022-10-23T11:38:30;101586.53;;;20.32;70.92
30347;BME280;19047;44.782;20.468;2022-10-23T11:48:43;101581.63;;;20.46;70.12
30347;BME280;19047;44.782;20.468;2022-10-23T11:52:22;101569.25;;;20.39;69.66
30347;BME280;19047;44.782;20.468;2022-10-23T11:56:23;101582.97;;;20.54;69.69
30347;BME280;19047;44.782;20.468;2022-10-23T11:59:57;101586.91;;;20.56;69.68
30347;BME280;19047;44.782;20.468;2022-10-23T12:03:29;101582.25;;;20.62;69.52
30347;BME280;19047;44.782;20.468;2022-10-23T12:07:15;101575.63;;;20.65;68.90
30347;BME280;19047;44.782;20.468;2022-10-23T12:10:45;101574.56;;;20.72;68.94
30347;BME280;19047;44.782;20.468;2022-10-23T12:17:42;101566.88;;;20.82;69.00
30347;BME280;19047;44.782;20.468;2022-10-23T12:21:24;101561.88;;;20.86;68.63
30347;BME280;19047;44.782;20.468;2022-10-23T12:39:54;101547.06;;;21.22;67.76
30347;BME280;19047;44.782;20.468;2022-10-23T12:43:30;101536.38;;;21.35;67.35
30347;BME280;19047;44.782;20.468;2022-10-23T12:46:50;101527.84;;;21.44;67.24
30347;BME280;19047;44.782;20.468;2022-10-23T12:50:27;101519.66;;;21.55;66.81
30347;BME280;19047;44.782;20.468;2022-10-23T12:53:47;101514.47;;;21.63;66.89
30347;BME280;19047;44.782;20.468;2022-10-23T12:57:21;101515.75;;;21.71;66.44
30347;BME280;19047;44.782;20.468;2022-10-23T13:00:49;101517.50;;;21.77;66.08
30347;BME280;19047;44.782;20.468;2022-10-23T13:04:30;101520.81;;;21.85;66.15
30347;BME280;19047;44.782;20.468;2022-10-23T13:07:49;101514.03;;;21.92;66.33
30347;BME280;19047;44.782;20.468;2022-10-23T13:11:33;101514.56;;;21.99;65.92
30347;BME280;19047;44.782;20.468;2022-10-23T13:15:12;101519.78;;;22.10;65.65
30347;BME280;19047;44.782;20.468;2022-10-23T13:18:44;101511.56;;;22.21;65.39
30347;BME280;19047;44.782;20.468;2022-10-23T13:22:19;101505.84;;;22.30;64.93
30347;BME280;19047;44.782;20.468;2022-10-23T13:25:59;101499.84;;;22.37;64.85
30347;BME280;19047;44.782;20.468;2022-10-23T13:29:32;101505.53;;;22.46;65.07
30347;BME280;19047;44.782;20.468;2022-10-23T13:33:24;101507.25;;;22.53;64.74
30347;BME280;19047;44.782;20.468;2022-10-23T13:36:51;101501.41;;;22.56;64.89
30347;BME280;19047;44.782;20.468;2022-10-23T13:40:26;101497.28;;;22.57;64.88
30347;BME280;19047;44.782;20.468;2022-10-23T13:43:45;101488.25;;;22.59;64.89
30347;BME280;19047;44.782;20.468;2022-10-23T13:47:17;101480.63;;;22.56;64.84
30347;BME280;19047;44.782;20.468;2022-10-23T13:50:37;101483.47;;;22.56;64.75
30347;BME280;19047;44.782;20.468;2022-10-23T13:54:14;101487.59;;;22.55;64.06
30347;BME280;19047;44.782;20.468;2022-10-23T13:57:38;101438.88;;;22.16;64.26
30347;BME280;19047;44.782;20.468;2022-10-23T14:01:29;101486.19;;;22.50;64.08
30347;BME280;19047;44.782;20.468;2022-10-23T14:04:48;101440.91;;;22.34;64.54
30347;BME280;19047;44.782;20.468;2022-10-23T14:08:23;101460.53;;;22.41;63.80
30347;BME280;19047;44.782;20.468;2022-10-23T14:11:40;101426.66;;;22.25;64.22
30347;BME280;19047;44.782;20.468;2022-10-23T14:15:12;101455.81;;;22.38;64.17
30347;BME280;19047;44.782;20.468;2022-10-23T14:18:30;101460.06;;;22.34;64.36
30347;BME280;19047;44.782;20.468;2022-10-23T14:22:09;101449.78;;;22.27;63.94
30347;BME280;19047;44.782;20.468;2022-10-23T14:26:09;101459.75;;;22.23;64.19
30347;BME280;19047;44.782;20.468;2022-10-23T14:29:27;101456.28;;;22.18;64.05
30347;BME280;19047;44.782;20.468;2022-10-23T14:33:01;101449.31;;;22.10;64.12
30347;BME280;19047;44.782;20.468;2022-10-23T14:36:24;101441.41;;;22.05;64.25
30347;BME280;19047;44.782;20.468;2022-10-23T14:39:55;101437.44;;;22.03;63.91
30347;BME280;19047;44.782;20.468;2022-10-23T14:43:15;101435.84;;;21.93;64.31
30347;BME280;19047;44.782;20.468;2022-10-23T14:46:45;101444.88;;;21.91;63.90
30347;BME280;19047;44.782;20.468;2022-10-23T14:50:02;101436.94;;;21.86;63.97
30347;BME280;19047;44.782;20.468;2022-10-23T14:53:34;101431.88;;;21.81;63.82
30347;BME280;19047;44.782;20.468;2022-10-23T14:56:51;101430.91;;;21.75;64.23
30347;BME280;19047;44.782;20.468;2022-10-23T15:00:22;101436.00;;;21.71;64.00
30347;BME280;19047;44.782;20.468;2022-10-23T15:03:43;101433.44;;;21.64;64.17
30347;BME280;19047;44.782;20.468;2022-10-23T15:07:18;101439.91;;;21.55;64.12
30347;BME280;19047;44.782;20.468;2022-10-23T15:10:36;101449.09;;;21.50;64.46
30347;BME280;19047;44.782;20.468;2022-10-23T15:14:06;101439.41;;;21.38;64.19
30347;BME280;19047;44.782;20.468;2022-10-23T15:17:23;101434.34;;;21.33;64.56
30347;BME280;19047;44.782;20.468;2022-10-23T15:20:55;101434.31;;;21.24;64.34
30347;BME280;19047;44.782;20.468;2022-10-23T15:24:13;101428.56;;;21.15;64.59
30347;BME280;19047;44.782;20.468;2022-10-23T15:27:45;101423.78;;;21.03;64.48
30347;BME280;19047;44.782;20.468;2022-10-23T15:31:02;101415.19;;;20.85;64.84
30347;BME280;19047;44.782;20.468;2022-10-23T15:34:34;101413.09;;;20.76;64.74
30347;BME280;19047;44.782;20.468;2022-10-23T15:37:53;101429.88;;;20.83;65.19
30347;BME280;19047;44.782;20.468;2022-10-23T15:41:30;101429.38;;;20.75;65.23
30347;BME280;19047;44.782;20.468;2022-10-23T15:44:53;101425.88;;;20.71;65.33
30347;BME280;19047;44.782;20.468;2022-10-23T15:48:24;101414.00;;;20.64;65.62
30347;BME280;19047;44.782;20.468;2022-10-23T15:51:42;101429.78;;;20.65;65.86
30347;BME280;19047;44.782;20.468;2022-10-23T15:55:13;101422.78;;;20.57;66.00
30347;BME280;19047;44.782;20.468;2022-10-23T15:58:34;101432.25;;;20.54;66.22
30347;BME280;19047;44.782;20.468;2022-10-23T16:02:09;101433.63;;;20.49;66.29
30347;BME280;19047;44.782;20.468;2022-10-23T16:05:27;101430.63;;;20.44;66.50
30347;BME280;19047;44.782;20.468;2022-10-23T16:08:57;101428.81;;;20.37;66.59
30347;BME280;19047;44.782;20.468;2022-10-23T16:12:17;101435.09;;;20.32;66.80
30347;BME280;19047;44.782;20.468;2022-10-23T16:15:47;101432.97;;;20.23;66.75
30347;BME280;19047;44.782;20.468;2022-10-23T16:19:04;101427.69;;;20.13;66.91
30347;BME280;19047;44.782;20.468;2022-10-23T16:22:34;101433.16;;;20.07;67.29
30347;BME280;19047;44.782;20.468;2022-10-23T16:25:52;101418.03;;;19.88;67.19
30347;BME280;19047;44.782;20.468;2022-10-23T16:29:25;101431.09;;;19.86;67.40
30347;BME280;19047;44.782;20.468;2022-10-23T16:32:47;101417.97;;;19.79;67.56
30347;BME280;19047;44.782;20.468;2022-10-23T16:36:18;101423.53;;;19.70;67.73
30347;BME280;19047;44.782;20.468;2022-10-23T16:40:08;101423.13;;;19.59;67.93
30347;BME280;19047;44.782;20.468;2022-10-23T16:44:14;101428.25;;;19.51;68.27
30347;BME280;19047;44.782;20.468;2022-10-23T16:47:42;101420.53;;;19.39;68.52
30347;BME280;19047;44.782;20.468;2022-10-23T16:51:17;101427.25;;;19.32;68.55
30347;BME280;19047;44.782;20.468;2022-10-23T16:54:34;101422.28;;;19.24;68.67
30347;BME280;19047;44.782;20.468;2022-10-23T16:58:04;101436.56;;;19.20;68.86
30347;BME280;19047;44.782;20.468;2022-10-23T17:01:24;101442.81;;;19.15;68.74
30347;BME280;19047;44.782;20.468;2022-10-23T17:04:56;101434.19;;;19.06;68.80
30347;BME280;19047;44.782;20.468;2022-10-23T17:08:14;101435.59;;;19.02;68.90
30347;BME280;19047;44.782;20.468;2022-10-23T17:11:45;101415.16;;;18.81;68.92
30347;BME280;19047;44.782;20.468;2022-10-23T17:15:03;101434.69;;;18.92;68.94
30347;BME280;19047;44.782;20.468;2022-10-23T17:18:36;101438.50;;;18.85;69.03
30347;BME280;19047;44.782;20.468;2022-10-23T17:21:57;101429.88;;;18.76;69.05
30347;BME280;19047;44.782;20.468;2022-10-23T17:25:33;101410.47;;;18.62;69.04
30347;BME280;19047;44.782;20.468;2022-10-23T17:28:50;101430.44;;;18.71;69.21
30347;BME280;19047;44.782;20.468;2022-10-23T17:32:20;101417.88;;;18.59;69.36
30347;BME280;19047;44.782;20.468;2022-10-23T17:35:39;101423.53;;;18.59;69.39
30347;BME280;19047;44.782;20.468;2022-10-23T17:39:18;101429.72;;;18.54;69.39
30347;BME280;19047;44.782;20.468;2022-10-23T17:42:38;101426.66;;;18.49;69.47
30347;BME280;19047;44.782;20.468;2022-10-23T17:46:11;101440.16;;;18.45;69.46
30347;BME280;19047;44.782;20.468;2022-10-23T17:49:28;101431.75;;;18.41;69.51
30347;BME280;19047;44.782;20.468;2022-10-23T17:52:59;101435.13;;;18.36;69.53
30347;BME280;19047;44.782;20.468;2022-10-23T17:56:20;101423.91;;;18.33;69.53
30347;BME280;19047;44.782;20.468;2022-10-23T17:59:50;101422.41;;;18.28;69.55
30347;BME280;19047;44.782;20.468;2022-10-23T18:03:29;101418.09;;;18.23;69.58
30347;BME280;19047;44.782;20.468;2022-10-23T18:06:47;101425.91;;;18.19;69.63
30347;BME280;19047;44.782;20.468;2022-10-23T18:10:20;101423.19;;;18.16;69.86
30347;BME280;19047;44.782;20.468;2022-10-23T18:13:40;101413.19;;;18.11;69.78
30347;BME280;19047;44.782;20.468;2022-10-23T18:17:13;101406.81;;;18.07;69.92
30347;BME280;19047;44.782;20.468;2022-10-23T18:20:30;101406.16;;;18.03;69.96
30347;BME280;19047;44.782;20.468;2022-10-23T18:24:01;101409.06;;;18.00;70.08
30347;BME280;19047;44.782;20.468;2022-10-23T18:27:18;101416.09;;;17.95;70.25
30347;BME280;19047;44.782;20.468;2022-10-23T18:30:49;101415.75;;;17.93;70.26
30347;BME280;19047;44.782;20.468;2022-10-23T18:34:21;101419.81;;;17.92;70.40
30347;BME280;19047;44.782;20.468;2022-10-23T18:37:56;101404.09;;;17.75;70.29
30347;BME280;19047;44.782;20.468;2022-10-23T18:41:13;101424.34;;;17.90;70.44
30347;BME280;19047;44.782;20.468;2022-10-23T18:44:46;101411.41;;;17.88;70.51
30347;BME280;19047;44.782;20.468;2022-10-23T18:48:05;101412.22;;;17.89;70.43
30347;BME280;19047;44.782;20.468;2022-10-23T18:51:36;101408.94;;;17.91;70.49
30347;BME280;19047;44.782;20.468;2022-10-23T18:54:53;101405.66;;;17.92;70.50
30347;BME280;19047;44.782;20.468;2022-10-23T18:58:25;101405.66;;;17.92;70.61
30347;BME280;19047;44.782;20.468;2022-10-23T19:01:56;101412.56;;;17.91;70.62
30347;BME280;19047;44.782;20.468;2022-10-23T19:05:13;101407.69;;;17.92;70.72
30347;BME280;19047;44.782;20.468;2022-10-23T19:08:44;101403.28;;;17.91;70.79
30347;BME280;19047;44.782;20.468;2022-10-23T19:12:01;101388.31;;;17.90;70.75
30347;BME280;19047;44.782;20.468;2022-10-23T19:15:32;101388.75;;;17.88;70.83
30347;BME280;19047;44.782;20.468;2022-10-23T19:18:52;101393.63;;;17.88;70.78
30347;BME280;19047;44.782;20.468;2022-10-23T19:22:24;101385.94;;;17.88;70.87
30347;BME280;19047;44.782;20.468;2022-10-23T19:25:43;101387.97;;;17.88;70.75
30347;BME280;19047;44.782;20.468;2022-10-23T19:29:16;101382.31;;;17.88;70.82
30347;BME280;19047;44.782;20.468;2022-10-23T19:32:34;101381.84;;;17.90;70.86
30347;BME280;19047;44.782;20.468;2022-10-23T19:36:06;101375.41;;;17.89;70.75
30347;BME280;19047;44.782;20.468;2022-10-23T19:39:23;101370.53;;;17.90;70.83
30347;BME280;19047;44.782;20.468;2022-10-23T19:42:54;101360.44;;;17.88;70.84
30347;BME280;19047;44.782;20.468;2022-10-23T19:46:11;101362.81;;;17.90;70.79
30347;BME280;19047;44.782;20.468;2022-10-23T19:49:42;101340.00;;;17.68;70.83
30347;BME280;19047;44.782;20.468;2022-10-23T19:52:59;101370.09;;;17.91;70.76
30347;BME280;19047;44.782;20.468;2022-10-23T19:56:30;101367.25;;;17.91;70.73
30347;BME280;19047;44.782;20.468;2022-10-23T19:59:48;101367.59;;;17.93;70.71
30347;BME280;19047;44.782;20.468;2022-10-23T20:03:27;101363.53;;;17.94;70.65
30347;BME280;19047;44.782;20.468;2022-10-23T20:06:44;101363.06;;;17.96;70.82
30347;BME280;19047;44.782;20.468;2022-10-23T20:10:17;101372.69;;;17.98;70.78
30347;BME280;19047;44.782;20.468;2022-10-23T20:13:37;101375.09;;;18.00;70.71
30347;BME280;19047;44.782;20.468;2022-10-23T20:17:07;101381.91;;;18.02;70.69
30347;BME280;19047;44.782;20.468;2022-10-23T20:20:24;101385.09;;;18.04;70.75
30347;BME280;19047;44.782;20.468;2022-10-23T20:23:59;101384.63;;;18.06;70.54
30347;BME280;19047;44.782;20.468;2022-10-23T20:27:16;101373.19;;;18.09;70.68
30347;BME280;19047;44.782;20.468;2022-10-23T20:30:46;101370.69;;;18.11;70.52
30347;BME280;19047;44.782;20.468;2022-10-23T20:34:04;101376.72;;;18.13;70.55
30347;BME280;19047;44.782;20.468;2022-10-23T20:37:34;101362.13;;;18.15;70.53
30347;BME280;19047;44.782;20.468;2022-10-23T20:40:57;101367.78;;;18.15;70.43
30347;BME280;19047;44.782;20.468;2022-10-23T20:44:27;101351.22;;;18.13;70.45
30347;BME280;19047;44.782;20.468;2022-10-23T20:47:47;101351.66;;;18.12;70.33
30347;BME280;19047;44.782;20.468;2022-10-23T20:51:19;101350.97;;;18.08;70.51
30347;BME280;19047;44.782;20.468;2022-10-23T20:54:40;101361.63;;;18.04;70.50
30347;BME280;19047;44.782;20.468;2022-10-23T20:58:11;101360.94;;;18.00;70.45
30347;BME280;19047;44.782;20.468;2022-10-23T21:01:28;101367.97;;;17.95;70.60
30347;BME280;19047;44.782;20.468;2022-10-23T21:04:59;101368.50;;;17.90;70.64
30347;BME280;19047;44.782;20.468;2022-10-23T21:08:16;101373.94;;;17.84;70.76
30347;BME280;19047;44.782;20.468;2022-10-23T21:11:46;101372.44;;;17.80;70.83
30347;BME280;19047;44.782;20.468;2022-10-23T21:15:03;101372.16;;;17.74;70.88
30347;BME280;19047;44.782;20.468;2022-10-23T21:18:35;101369.91;;;17.69;70.91
30347;BME280;19047;44.782;20.468;2022-10-23T21:21:53;101359.56;;;17.63;70.88
30347;BME280;19047;44.782;20.468;2022-10-23T21:25:23;101354.41;;;17.58;70.99
30347;BME280;19047;44.782;20.468;2022-10-23T21:28:42;101359.03;;;17.51;71.17
30347;BME280;19047;44.782;20.468;2022-10-23T21:32:13;101359.91;;;17.48;71.23
30347;BME280;19047;44.782;20.468;2022-10-23T21:35:30;101365.66;;;17.45;71.33
30347;BME280;19047;44.782;20.468;2022-10-23T21:39:01;101327.50;;;17.21;71.45
30347;BME280;19047;44.782;20.468;2022-10-23T21:42:18;101356.16;;;17.39;71.41
30347;BME280;19047;44.782;20.468;2022-10-23T21:45:49;101353.41;;;17.35;71.63
30347;BME280;19047;44.782;20.468;2022-10-23T21:49:06;101336.34;;;17.23;71.68
30347;BME280;19047;44.782;20.468;2022-10-23T21:52:37;101353.94;;;17.30;71.54
30347;BME280;19047;44.782;20.468;2022-10-23T21:55:54;101356.00;;;17.30;71.84
30347;BME280;19047;44.782;20.468;2022-10-23T21:59:25;101355.63;;;17.28;71.76
30347;BME280;19047;44.782;20.468;2022-10-23T22:02:45;101360.50;;;17.27;71.84
30347;BME280;19047;44.782;20.468;2022-10-23T22:06:18;101353.25;;;17.26;72.00
30347;BME280;19047;44.782;20.468;2022-10-23T22:09:35;101354.47;;;17.25;72.05
30347;BME280;19047;44.782;20.468;2022-10-23T22:13:05;101361.38;;;17.24;72.00
30347;BME280;19047;44.782;20.468;2022-10-23T22:16:22;101356.94;;;17.23;72.18
30347;BME280;19047;44.782;20.468;2022-10-23T22:19:53;101363.03;;;17.22;72.22
30347;BME280;19047;44.782;20.468;2022-10-23T22:23:10;101367.91;;;17.21;72.33
30347;BME280;19047;44.782;20.468;2022-10-23T22:26:41;101358.28;;;17.19;72.41
30347;BME280;19047;44.782;20.468;2022-10-23T22:29:59;101363.59;;;17.17;72.19
30347;BME280;19047;44.782;20.468;2022-10-23T22:33:30;101348.56;;;17.03;72.44
30347;BME280;19047;44.782;20.468;2022-10-23T22:36:47;101370.94;;;17.14;72.62
